createdAt,value
2018-05-02T00:00:10.099Z,0
2018-05-02T00:01:10.299Z,0
2018-05-02T00:02:13.142Z,0
2018-05-02T00:03:10.355Z,0
2018-05-02T00:04:10.114Z,0
2018-05-02T00:05:10.167Z,0
2018-05-02T00:06:10.155Z,0
2018-05-02T00:07:10.194Z,0
2018-05-02T00:08:09.956Z,0
2018-05-02T00:09:10.172Z,0
2018-05-02T00:10:10.254Z,0
2018-05-02T00:11:09.973Z,0
2018-05-02T00:12:10.259Z,0
2018-05-02T00:13:10.297Z,0
2018-05-02T00:14:10.310Z,0
2018-05-02T00:15:10.316Z,0
2018-05-02T00:16:10.710Z,0
2018-05-02T00:17:10.342Z,0
2018-05-02T00:18:10.718Z,0
2018-05-02T00:19:10.404Z,0
2018-05-02T00:20:10.129Z,0
2018-05-02T00:21:10.465Z,0
2018-05-02T00:22:10.449Z,0
2018-05-02T00:23:10.738Z,0
2018-05-02T00:24:10.500Z,0
2018-05-02T00:25:10.508Z,0
2018-05-02T00:26:10.260Z,0
2018-05-02T00:27:10.816Z,0
2018-05-02T00:28:10.578Z,0
2018-05-02T00:29:10.307Z,0
2018-05-02T00:30:10.935Z,0
2018-05-02T00:31:10.624Z,0
2018-05-02T00:32:10.652Z,0
2018-05-02T00:33:10.624Z,0
2018-05-02T00:34:10.291Z,0
2018-05-02T00:35:10.416Z,0
2018-05-02T00:36:10.480Z,0
2018-05-02T00:37:10.732Z,0
2018-05-02T00:38:10.193Z,0
2018-05-02T00:39:10.482Z,0
2018-05-02T00:40:10.218Z,0
2018-05-02T00:41:10.782Z,0
2018-05-02T00:42:10.859Z,0
2018-05-02T00:43:10.861Z,0
2018-05-02T00:44:10.581Z,0
2018-05-02T00:45:10.971Z,0
2018-05-02T00:46:10.394Z,0
2018-05-02T00:47:11.199Z,0
2018-05-02T00:48:10.973Z,0
2018-05-02T00:49:10.666Z,0
2018-05-02T00:50:11.004Z,0
2018-05-02T00:51:11.182Z,0
2018-05-02T00:52:11.007Z,0
2018-05-02T00:53:11.326Z,0
2018-05-02T00:54:11.005Z,0
2018-05-02T00:55:11.358Z,0
2018-05-02T00:56:10.839Z,0
2018-05-02T00:57:10.529Z,0
2018-05-02T00:58:11.405Z,0
2018-05-02T00:59:10.557Z,0
2018-05-02T01:00:10.886Z,0
2018-05-02T01:01:10.894Z,0
2018-05-02T01:02:10.897Z,0
2018-05-02T01:03:11.213Z,0
2018-05-02T01:04:11.533Z,0
2018-05-02T01:05:11.519Z,0
2018-05-02T01:06:11.243Z,0
2018-05-02T01:07:11.534Z,0
2018-05-02T01:08:11.289Z,0
2018-05-02T01:09:11.657Z,0
2018-05-02T01:10:11.612Z,0
2018-05-02T01:11:11.713Z,0
2018-05-02T01:12:11.374Z,0
2018-05-02T01:13:11.378Z,0
2018-05-02T01:14:11.180Z,0
2018-05-02T01:15:11.715Z,0
2018-05-02T01:16:11.319Z,0
2018-05-02T01:17:11.183Z,0
2018-05-02T01:18:10.930Z,0
2018-05-02T01:19:11.517Z,0
2018-05-02T01:20:11.522Z,0
2018-05-02T01:21:11.517Z,0
2018-05-02T01:22:11.579Z,0
2018-05-02T01:23:11.279Z,0
2018-05-02T01:24:11.608Z,0
2018-05-02T01:25:11.328Z,0
2018-05-02T01:26:11.631Z,0
2018-05-02T01:27:11.642Z,0
2018-05-02T01:28:11.357Z,0
2018-05-02T01:29:11.430Z,0
2018-05-02T01:30:11.740Z,0
2018-05-02T01:31:11.771Z,0
2018-05-02T01:32:11.462Z,0
2018-05-02T01:33:11.752Z,0
2018-05-02T01:34:11.771Z,0
2018-05-02T01:35:11.531Z,0
2018-05-02T01:36:11.539Z,0
2018-05-02T01:37:11.838Z,0
2018-05-02T01:38:11.852Z,0
2018-05-02T01:39:11.572Z,0
2018-05-02T01:40:12.168Z,0
2018-05-02T01:41:11.621Z,0
2018-05-02T01:42:11.917Z,0
2018-05-02T01:43:11.945Z,0
2018-05-02T01:44:11.974Z,0
2018-05-02T01:45:11.992Z,0
2018-05-02T01:46:12.289Z,0
2018-05-02T01:47:12.045Z,0
2018-05-02T01:48:12.020Z,0
2018-05-02T01:49:12.070Z,0
2018-05-02T01:50:11.784Z,0
2018-05-02T01:51:11.534Z,0
2018-05-02T01:52:12.379Z,0
2018-05-02T01:53:12.110Z,0
2018-05-02T01:54:11.866Z,0
2018-05-02T01:55:11.609Z,0
2018-05-02T01:56:12.164Z,0
2018-05-02T01:57:12.226Z,0
2018-05-02T01:58:12.493Z,0
2018-05-02T01:59:12.217Z,0
2018-05-02T02:00:12.213Z,0
2018-05-02T02:01:12.408Z,0
2018-05-02T02:02:12.547Z,0
2018-05-02T02:03:12.607Z,0
2018-05-02T02:04:12.633Z,0
2018-05-02T02:05:12.338Z,0
2018-05-02T02:06:12.060Z,0
2018-05-02T02:07:12.351Z,0
2018-05-02T02:08:12.399Z,0
2018-05-02T02:09:12.152Z,0
2018-05-02T02:10:12.781Z,0
2018-05-02T02:11:12.199Z,0
2018-05-02T02:12:12.463Z,0
2018-05-02T02:13:12.178Z,0
2018-05-02T02:14:12.793Z,0
2018-05-02T02:15:12.892Z,0
2018-05-02T02:16:12.296Z,0
2018-05-02T02:17:12.577Z,0
2018-05-02T02:18:12.567Z,0
2018-05-02T02:19:12.599Z,0
2018-05-02T02:20:12.056Z,0
2018-05-02T02:21:12.618Z,0
2018-05-02T02:22:12.910Z,0
2018-05-02T02:23:12.390Z,0
2018-05-02T02:24:12.372Z,0
2018-05-02T02:25:12.714Z,0
2018-05-02T02:26:12.995Z,0
2018-05-02T02:27:12.470Z,0
2018-05-02T02:28:12.754Z,0
2018-05-02T02:29:12.473Z,0
2018-05-02T02:30:12.822Z,0
2018-05-02T02:31:13.105Z,0
2018-05-02T02:32:12.546Z,0
2018-05-02T02:33:13.112Z,0
2018-05-02T02:34:13.158Z,0
2018-05-02T02:35:12.891Z,0
2018-05-02T02:36:12.940Z,0
2018-05-02T02:37:12.641Z,0
2018-05-02T02:38:13.229Z,0
2018-05-02T02:39:13.250Z,0
2018-05-02T02:40:12.702Z,0
2018-05-02T02:41:12.818Z,0
2018-05-02T02:42:12.720Z,0
2018-05-02T02:43:12.435Z,0
2018-05-02T02:44:13.039Z,0
2018-05-02T02:45:13.041Z,0
2018-05-02T02:46:12.790Z,0
2018-05-02T02:47:12.791Z,0
2018-05-02T02:48:12.824Z,0
2018-05-02T02:49:13.407Z,0
2018-05-02T02:50:13.155Z,0
2018-05-02T02:51:13.134Z,0
2018-05-02T02:52:12.886Z,0
2018-05-02T02:53:13.193Z,0
2018-05-02T02:54:13.524Z,0
2018-05-02T02:55:12.995Z,0
2018-05-02T02:56:13.550Z,0
2018-05-02T02:57:13.611Z,0
2018-05-02T02:58:13.006Z,0
2018-05-02T02:59:13.608Z,0
2018-05-02T03:00:13.568Z,0
2018-05-02T03:01:13.052Z,0
2018-05-02T03:02:13.664Z,0
2018-05-02T03:03:13.094Z,0
2018-05-02T03:04:13.656Z,0
2018-05-02T03:05:13.130Z,0
2018-05-02T03:06:13.135Z,0
2018-05-02T03:07:13.705Z,0
2018-05-02T03:08:13.733Z,0
2018-05-02T03:09:13.507Z,0
2018-05-02T03:10:13.821Z,0
2018-05-02T03:11:13.808Z,0
2018-05-02T03:12:13.266Z,0
2018-05-02T03:13:13.828Z,0
2018-05-02T03:14:13.589Z,0
2018-05-02T03:15:13.332Z,0
2018-05-02T03:16:13.862Z,0
2018-05-02T03:17:13.644Z,0
2018-05-02T03:18:13.622Z,0
2018-05-02T03:19:13.676Z,0
2018-05-02T03:20:13.961Z,0
2018-05-02T03:21:13.413Z,0
2018-05-02T03:22:13.948Z,0
2018-05-02T03:23:13.998Z,0
2018-05-02T03:24:13.736Z,0
2018-05-02T03:25:13.845Z,0
2018-05-02T03:26:13.779Z,0
2018-05-02T03:27:14.162Z,0
2018-05-02T03:28:13.791Z,0
2018-05-02T03:29:13.831Z,0
2018-05-02T03:30:14.116Z,0
2018-05-02T03:31:14.115Z,0
2018-05-02T03:32:13.967Z,0
2018-05-02T03:33:13.876Z,0
2018-05-02T03:34:13.884Z,0
2018-05-02T03:35:14.221Z,0
2018-05-02T03:36:14.005Z,0
2018-05-02T03:37:13.669Z,0
2018-05-02T03:38:13.994Z,0
2018-05-02T03:39:14.261Z,0
2018-05-02T03:40:14.024Z,0
2018-05-02T03:41:13.470Z,0
2018-05-02T03:42:14.061Z,0
2018-05-02T03:43:14.339Z,0
2018-05-02T03:44:14.367Z,0
2018-05-02T03:45:14.112Z,0
2018-05-02T03:46:14.115Z,0
2018-05-02T03:47:14.378Z,0
2018-05-02T03:48:14.405Z,0
2018-05-02T03:49:14.428Z,0
2018-05-02T03:50:14.486Z,0
2018-05-02T03:51:14.199Z,0
2018-05-02T03:52:14.216Z,0
2018-05-02T03:53:14.681Z,0
2018-05-02T03:54:13.967Z,0
2018-05-02T03:55:14.569Z,0
2018-05-02T03:56:13.988Z,0
2018-05-02T03:57:14.314Z,0
2018-05-02T03:58:14.325Z,0
2018-05-02T03:59:14.343Z,0
2018-05-02T04:00:14.634Z,0
2018-05-02T04:01:14.356Z,0
2018-05-02T04:02:14.698Z,0
2018-05-02T04:03:14.690Z,0
2018-05-02T04:04:14.454Z,0
2018-05-02T04:05:14.705Z,0
2018-05-02T04:06:14.453Z,0
2018-05-02T04:07:13.895Z,0
2018-05-02T04:08:14.750Z,0
2018-05-02T04:09:14.522Z,0
2018-05-02T04:10:14.531Z,0
2018-05-02T04:11:14.555Z,0
2018-05-02T04:12:14.289Z,0
2018-05-02T04:13:14.299Z,0
2018-05-02T04:14:14.604Z,0
2018-05-02T04:15:14.627Z,0
2018-05-02T04:16:14.365Z,0
2018-05-02T04:17:14.720Z,0
2018-05-02T04:18:14.649Z,0
2018-05-02T04:19:14.650Z,0
2018-05-02T04:20:14.420Z,0
2018-05-02T04:21:14.435Z,0
2018-05-02T04:22:15.076Z,0
2018-05-02T04:23:14.758Z,0
2018-05-02T04:24:14.776Z,0
2018-05-02T04:25:14.778Z,0
2018-05-02T04:26:14.715Z,0
2018-05-02T04:27:15.115Z,0
2018-05-02T04:28:14.827Z,0
2018-05-02T04:29:14.311Z,0
2018-05-02T04:30:15.160Z,0
2018-05-02T04:31:14.603Z,0
2018-05-02T04:32:14.945Z,0
2018-05-02T04:33:15.203Z,0
2018-05-02T04:34:14.914Z,5
2018-05-02T04:35:15.226Z,5
2018-05-02T04:36:15.273Z,5
2018-05-02T04:37:15.062Z,5
2018-05-02T04:38:15.267Z,5
2018-05-02T04:39:15.024Z,5
2018-05-02T04:40:15.014Z,5
2018-05-02T04:41:15.159Z,5
2018-05-02T04:42:15.347Z,5
2018-05-02T04:43:15.087Z,5
2018-05-02T04:44:15.113Z,5
2018-05-02T04:45:14.581Z,5
2018-05-02T04:46:15.135Z,5
2018-05-02T04:47:14.948Z,5
2018-05-02T04:48:15.160Z,5
2018-05-02T04:49:15.476Z,5
2018-05-02T04:50:14.628Z,5
2018-05-02T04:51:15.492Z,5
2018-05-02T04:52:15.527Z,5
2018-05-02T04:53:15.255Z,5
2018-05-02T04:54:14.975Z,5
2018-05-02T04:55:14.792Z,5
2018-05-02T04:56:14.745Z,5
2018-05-02T04:57:15.330Z,5
2018-05-02T04:58:15.349Z,5
2018-05-02T04:59:15.388Z,5
2018-05-02T05:00:15.686Z,5
2018-05-02T05:01:15.698Z,5
2018-05-02T05:02:15.418Z,5
2018-05-02T05:03:15.436Z,5
2018-05-02T05:04:15.151Z,5
2018-05-02T05:05:15.761Z,5
2018-05-02T05:06:15.503Z,5
2018-05-02T05:07:17.133Z,5
2018-05-02T05:08:15.241Z,5
2018-05-02T05:09:15.559Z,5
2018-05-02T05:10:15.521Z,10
2018-05-02T05:11:15.853Z,10
2018-05-02T05:12:15.984Z,10
2018-05-02T05:13:15.333Z,10
2018-05-02T05:14:15.954Z,10
2018-05-02T05:15:15.903Z,10
2018-05-02T05:16:15.656Z,10
2018-05-02T05:17:15.952Z,10
2018-05-02T05:18:16.027Z,10
2018-05-02T05:19:15.994Z,10
2018-05-02T05:20:15.422Z,10
2018-05-02T05:21:16.031Z,10
2018-05-02T05:22:16.076Z,10
2018-05-02T05:23:16.115Z,10
2018-05-02T05:24:15.795Z,10
2018-05-02T05:25:15.799Z,10
2018-05-02T05:26:15.835Z,10
2018-05-02T05:27:15.572Z,10
2018-05-02T05:28:15.763Z,10
2018-05-02T05:29:15.658Z,10
2018-05-02T05:30:15.897Z,10
2018-05-02T05:31:16.196Z,10
2018-05-02T05:32:16.280Z,10
2018-05-02T05:33:15.965Z,10
2018-05-02T05:34:15.672Z,10
2018-05-02T05:35:15.801Z,10
2018-05-02T05:36:15.732Z,10
2018-05-02T05:37:15.746Z,10
2018-05-02T05:38:16.112Z,10
2018-05-02T05:39:16.353Z,10
2018-05-02T05:40:16.084Z,10
2018-05-02T05:41:16.065Z,10
2018-05-02T05:42:16.374Z,10
2018-05-02T05:43:16.402Z,10
2018-05-02T05:44:16.134Z,15
2018-05-02T05:45:16.145Z,15
2018-05-02T05:46:16.479Z,15
2018-05-02T05:47:16.490Z,15
2018-05-02T05:48:16.288Z,15
2018-05-02T05:49:16.227Z,15
2018-05-02T05:50:15.965Z,15
2018-05-02T05:51:16.250Z,15
2018-05-02T05:52:16.268Z,15
2018-05-02T05:53:16.603Z,15
2018-05-02T05:54:17.526Z,15
2018-05-02T05:55:16.040Z,15
2018-05-02T05:56:16.635Z,15
2018-05-02T05:57:16.405Z,15
2018-05-02T05:58:16.392Z,15
2018-05-02T05:59:16.643Z,15
2018-05-02T06:00:16.138Z,15
2018-05-02T06:01:16.442Z,15
2018-05-02T06:02:16.453Z,15
2018-05-02T06:03:16.475Z,15
2018-05-02T06:04:16.219Z,15
2018-05-02T06:05:16.501Z,15
2018-05-02T06:06:16.259Z,20
2018-05-02T06:07:16.826Z,20
2018-05-02T06:08:16.594Z,20
2018-05-02T06:09:16.866Z,20
2018-05-02T06:10:16.649Z,20
2018-05-02T06:11:16.325Z,20
2018-05-02T06:12:16.931Z,20
2018-05-02T06:13:16.672Z,20
2018-05-02T06:14:16.922Z,20
2018-05-02T06:15:16.991Z,20
2018-05-02T06:16:16.981Z,20
2018-05-02T06:17:16.737Z,20
2018-05-02T06:18:17.014Z,20
2018-05-02T06:19:17.053Z,20
2018-05-02T06:20:17.107Z,20
2018-05-02T06:21:17.067Z,20
2018-05-02T06:22:17.075Z,20
2018-05-02T06:23:17.104Z,20
2018-05-02T06:24:16.583Z,20
2018-05-02T06:25:17.165Z,20
2018-05-02T06:26:17.643Z,20
2018-05-02T06:27:16.891Z,20
2018-05-02T06:28:16.902Z,20
2018-05-02T06:29:17.227Z,20
2018-05-02T06:30:17.254Z,20
2018-05-02T06:31:16.990Z,20
2018-05-02T06:32:16.681Z,25
2018-05-02T06:33:16.985Z,25
2018-05-02T06:34:17.334Z,25
2018-05-02T06:35:17.049Z,25
2018-05-02T06:36:17.037Z,25
2018-05-02T06:37:17.039Z,25
2018-05-02T06:38:17.124Z,25
2018-05-02T06:39:17.400Z,25
2018-05-02T06:40:17.404Z,25
2018-05-02T06:41:17.132Z,25
2018-05-02T06:42:17.456Z,25
2018-05-02T06:43:17.252Z,20
2018-05-02T06:44:17.179Z,20
2018-05-02T06:45:16.925Z,25
2018-05-02T06:46:16.951Z,25
2018-05-02T06:47:17.547Z,25
2018-05-02T06:48:17.561Z,25
2018-05-02T06:49:17.927Z,25
2018-05-02T06:50:17.814Z,25
2018-05-02T06:51:17.614Z,25
2018-05-02T06:52:17.664Z,20
2018-05-02T06:53:17.360Z,20
2018-05-02T06:54:17.366Z,20
2018-05-02T06:55:17.701Z,25
2018-05-02T06:56:17.406Z,25
2018-05-02T06:57:17.738Z,25
2018-05-02T06:58:17.453Z,25
2018-05-02T06:59:16.923Z,25
2018-05-02T07:00:17.786Z,25
2018-05-02T07:01:17.757Z,25
2018-05-02T07:02:17.540Z,25
2018-05-02T07:03:17.545Z,25
2018-05-02T07:04:17.569Z,25
2018-05-02T07:05:17.870Z,25
2018-05-02T07:06:17.319Z,25
2018-05-02T07:07:17.792Z,25
2018-05-02T07:08:17.635Z,25
2018-05-02T07:09:17.664Z,25
2018-05-02T07:10:17.645Z,25
2018-05-02T07:11:17.692Z,30
2018-05-02T07:12:18.005Z,30
2018-05-02T07:13:17.736Z,30
2018-05-02T07:14:18.040Z,30
2018-05-02T07:15:18.016Z,25
2018-05-02T07:16:18.075Z,25
2018-05-02T07:17:17.811Z,25
2018-05-02T07:18:17.801Z,25
2018-05-02T07:19:17.542Z,30
2018-05-02T07:20:17.851Z,30
2018-05-02T07:21:18.165Z,30
2018-05-02T07:22:17.968Z,30
2018-05-02T07:23:18.204Z,30
2018-05-02T07:24:17.919Z,30
2018-05-02T07:25:17.964Z,30
2018-05-02T07:26:17.983Z,30
2018-05-02T07:27:18.261Z,35
2018-05-02T07:28:17.716Z,35
2018-05-02T07:29:18.295Z,35
2018-05-02T07:30:18.080Z,35
2018-05-02T07:31:18.044Z,35
2018-05-02T07:32:18.089Z,35
2018-05-02T07:33:18.570Z,35
2018-05-02T07:34:18.113Z,35
2018-05-02T07:35:18.409Z,35
2018-05-02T07:36:17.869Z,35
2018-05-02T07:37:18.170Z,35
2018-05-02T07:38:18.196Z,35
2018-05-02T07:39:18.513Z,30
2018-05-02T07:40:18.654Z,35
2018-05-02T07:41:18.255Z,35
2018-05-02T07:42:18.165Z,35
2018-05-02T07:43:18.594Z,35
2018-05-02T07:44:18.579Z,30
2018-05-02T07:45:18.338Z,30
2018-05-02T07:46:18.621Z,30
2018-05-02T07:47:18.377Z,30
2018-05-02T07:48:18.105Z,30
2018-05-02T07:49:18.117Z,25
2018-05-02T07:50:18.478Z,25
2018-05-02T07:51:18.136Z,25
2018-05-02T07:52:18.489Z,25
2018-05-02T07:53:18.206Z,30
2018-05-02T07:54:18.216Z,30
2018-05-02T07:55:18.518Z,25
2018-05-02T07:56:18.546Z,25
2018-05-02T07:57:18.535Z,30
2018-05-02T07:58:18.588Z,35
2018-05-02T07:59:18.572Z,35
2018-05-02T08:00:18.909Z,35
2018-05-02T08:01:18.354Z,35
2018-05-02T08:02:18.379Z,35
2018-05-02T08:03:18.647Z,35
2018-05-02T08:04:18.694Z,35
2018-05-02T08:05:18.686Z,35
2018-05-02T08:06:18.713Z,35
2018-05-02T08:07:18.996Z,35
2018-05-02T08:08:19.061Z,35
2018-05-02T08:09:19.175Z,40
2018-05-02T08:10:18.833Z,40
2018-05-02T08:11:19.267Z,35
2018-05-02T08:12:19.160Z,35
2018-05-02T08:13:18.588Z,35
2018-05-02T08:14:18.891Z,40
2018-05-02T08:15:18.962Z,40
2018-05-02T08:16:18.928Z,40
2018-05-02T08:17:18.914Z,35
2018-05-02T08:18:18.954Z,35
2018-05-02T08:19:19.273Z,35
2018-05-02T08:20:19.299Z,35
2018-05-02T08:21:19.307Z,35
2018-05-02T08:22:19.214Z,35
2018-05-02T08:23:19.073Z,35
2018-05-02T08:24:19.327Z,30
2018-05-02T08:25:19.107Z,25
2018-05-02T08:26:19.400Z,25
2018-05-02T08:27:19.155Z,25
2018-05-02T08:28:19.436Z,25
2018-05-02T08:29:19.155Z,25
2018-05-02T08:30:19.475Z,25
2018-05-02T08:31:19.198Z,25
2018-05-02T08:32:19.237Z,25
2018-05-02T08:33:19.321Z,25
2018-05-02T08:34:18.977Z,20
2018-05-02T08:35:19.579Z,20
2018-05-02T08:36:19.320Z,20
2018-05-02T08:37:19.605Z,20
2018-05-02T08:38:19.360Z,20
2018-05-02T08:39:19.618Z,20
2018-05-02T08:40:19.112Z,15
2018-05-02T08:41:19.386Z,15
2018-05-02T08:42:19.701Z,20
2018-05-02T08:43:19.730Z,20
2018-05-02T08:44:19.720Z,25
2018-05-02T08:45:19.495Z,25
2018-05-02T08:46:19.494Z,20
2018-05-02T08:47:19.827Z,20
2018-05-02T08:48:19.540Z,20
2018-05-02T08:49:19.868Z,20
2018-05-02T08:50:19.585Z,20
2018-05-02T08:51:19.864Z,20
2018-05-02T08:52:19.351Z,20
2018-05-02T08:53:19.909Z,20
2018-05-02T08:54:19.964Z,20
2018-05-02T08:55:19.955Z,20
2018-05-02T08:56:19.966Z,20
2018-05-02T08:57:19.788Z,20
2018-05-02T08:58:19.753Z,20
2018-05-02T08:59:19.768Z,20
2018-05-02T09:00:19.246Z,25
2018-05-02T09:01:20.088Z,25
2018-05-02T09:02:19.829Z,20
2018-05-02T09:03:20.131Z,20
2018-05-02T09:04:20.105Z,20
2018-05-02T09:05:19.622Z,20
2018-05-02T09:06:20.210Z,20
2018-05-02T09:07:19.937Z,20
2018-05-02T09:08:19.929Z,20
2018-05-02T09:09:19.958Z,25
2018-05-02T09:10:19.719Z,25
2018-05-02T09:11:20.040Z,25
2018-05-02T09:12:19.767Z,25
2018-05-02T09:13:19.750Z,25
2018-05-02T09:14:20.058Z,30
2018-05-02T09:15:20.355Z,25
2018-05-02T09:16:20.363Z,25
2018-05-02T09:17:20.102Z,25
2018-05-02T09:18:20.418Z,25
2018-05-02T09:19:20.428Z,30
2018-05-02T09:20:20.179Z,30
2018-05-02T09:21:20.536Z,30
2018-05-02T09:22:20.503Z,25
2018-05-02T09:23:20.620Z,25
2018-05-02T09:24:20.242Z,20
2018-05-02T09:25:20.287Z,20
2018-05-02T09:26:19.819Z,20
2018-05-02T09:27:20.581Z,20
2018-05-02T09:28:20.660Z,25
2018-05-02T09:29:20.373Z,30
2018-05-02T09:30:20.660Z,40
2018-05-02T09:31:20.375Z,45
2018-05-02T09:32:20.116Z,45
2018-05-02T09:33:19.866Z,40
2018-05-02T09:34:20.706Z,35
2018-05-02T09:35:20.458Z,30
2018-05-02T09:36:20.818Z,35
2018-05-02T09:37:20.214Z,30
2018-05-02T09:38:20.839Z,30
2018-05-02T09:39:20.562Z,35
2018-05-02T09:40:20.277Z,35
2018-05-02T09:41:20.317Z,40
2018-05-02T09:42:20.617Z,40
2018-05-02T09:43:20.628Z,40
2018-05-02T09:44:21.244Z,40
2018-05-02T09:45:20.945Z,40
2018-05-02T09:46:20.757Z,40
2018-05-02T09:47:20.982Z,35
2018-05-02T09:48:20.709Z,35
2018-05-02T09:49:20.747Z,35
2018-05-02T09:50:20.481Z,40
2018-05-02T09:51:20.799Z,40
2018-05-02T09:52:21.120Z,35
2018-05-02T09:53:20.830Z,30
2018-05-02T09:54:20.567Z,25
2018-05-02T09:55:21.170Z,25
2018-05-02T09:56:21.165Z,25
2018-05-02T09:57:21.215Z,25
2018-05-02T09:58:21.610Z,35
2018-05-02T09:59:21.232Z,45
2018-05-02T10:00:21.260Z,45
2018-05-02T10:01:20.152Z,45
2018-05-02T10:02:21.302Z,40
2018-05-02T10:03:20.996Z,40
2018-05-02T10:04:20.794Z,50
2018-05-02T10:05:20.799Z,40
2018-05-02T10:06:21.077Z,30
2018-05-02T10:07:20.824Z,25
2018-05-02T10:08:21.425Z,20
2018-05-02T10:09:20.892Z,15
2018-05-02T10:10:21.185Z,15
2018-05-02T10:11:21.195Z,15
2018-05-02T10:12:21.532Z,15
2018-05-02T10:13:21.541Z,15
2018-05-02T10:14:20.979Z,15
2018-05-02T10:15:21.259Z,20
2018-05-02T10:16:21.606Z,20
2018-05-02T10:17:21.318Z,20
2018-05-02T10:18:21.707Z,20
2018-05-02T10:19:22.056Z,20
2018-05-02T10:20:21.662Z,25
2018-05-02T10:21:21.416Z,25
2018-05-02T10:22:21.134Z,20
2018-05-02T10:23:21.170Z,15
2018-05-02T10:24:21.496Z,15
2018-05-02T10:25:21.784Z,15
2018-05-02T10:26:22.354Z,15
2018-05-02T10:27:21.532Z,15
2018-05-02T10:28:21.553Z,15
2018-05-02T10:29:21.855Z,15
2018-05-02T10:30:21.913Z,15
2018-05-02T10:31:21.911Z,15
2018-05-02T10:32:21.372Z,15
2018-05-02T10:33:21.619Z,15
2018-05-02T10:34:21.689Z,20
2018-05-02T10:35:21.956Z,20
2018-05-02T10:36:21.707Z,20
2018-05-02T10:37:21.740Z,20
2018-05-02T10:38:21.472Z,25
2018-05-02T10:39:22.035Z,25
2018-05-02T10:40:22.101Z,25
2018-05-02T10:41:21.535Z,25
2018-05-02T10:42:21.811Z,20
2018-05-02T10:43:21.973Z,15
2018-05-02T10:44:22.162Z,20
2018-05-02T10:45:21.891Z,20
2018-05-02T10:46:22.188Z,20
2018-05-02T10:47:22.174Z,15
2018-05-02T10:48:22.208Z,15
2018-05-02T10:49:22.263Z,15
2018-05-02T10:51:25.829Z,25
2018-05-02T10:51:35.586Z,25
2018-05-02T10:52:35.605Z,30
2018-05-02T10:53:35.636Z,30
2018-05-02T10:54:35.077Z,25
2018-05-02T10:55:35.963Z,30
2018-05-02T10:56:35.705Z,30
2018-05-02T10:57:35.998Z,30
2018-05-02T10:58:35.731Z,30
2018-05-02T10:59:36.041Z,35
2018-05-02T11:00:35.207Z,40
2018-05-02T11:01:35.842Z,40
2018-05-02T11:02:35.526Z,40
2018-05-02T11:03:36.108Z,45
2018-05-02T11:04:35.864Z,55
2018-05-02T11:05:35.588Z,65
2018-05-02T11:06:35.890Z,65
2018-05-02T11:07:36.195Z,65
2018-05-02T11:08:36.289Z,65
2018-05-02T11:09:35.668Z,65
2018-05-02T11:10:35.968Z,60
2018-05-02T11:11:35.705Z,60
2018-05-02T11:12:36.012Z,60
2018-05-02T11:13:36.036Z,60
2018-05-02T11:14:35.772Z,65
2018-05-02T11:15:36.356Z,75
2018-05-02T11:16:36.092Z,70
2018-05-02T11:17:36.408Z,65
2018-05-02T11:18:36.424Z,65
2018-05-02T11:19:35.870Z,65
2018-05-02T11:20:36.465Z,70
2018-05-02T11:21:35.912Z,65
2018-05-02T11:22:36.261Z,70
2018-05-02T11:23:36.523Z,75
2018-05-02T11:24:36.548Z,75
2018-05-02T11:25:36.279Z,75
2018-05-02T11:26:36.604Z,75
2018-05-02T11:27:36.040Z,70
2018-05-02T11:28:36.555Z,70
2018-05-02T11:29:36.099Z,70
2018-05-02T11:30:36.389Z,75
2018-05-02T11:31:36.170Z,75
2018-05-02T11:32:36.715Z,75
2018-05-02T11:33:36.448Z,75
2018-05-02T11:34:36.020Z,70
2018-05-02T11:35:36.205Z,80
2018-05-02T11:36:36.781Z,80
2018-05-02T11:37:36.828Z,75
2018-05-02T11:38:36.835Z,65
2018-05-02T11:39:36.285Z,70
2018-05-02T11:40:36.660Z,75
2018-05-02T11:41:36.908Z,70
2018-05-02T11:42:36.093Z,70
2018-05-02T11:43:36.947Z,75
2018-05-02T11:44:36.393Z,80
2018-05-02T11:45:36.415Z,75
2018-05-02T11:46:37.000Z,70
2018-05-02T11:47:36.745Z,70
2018-05-02T11:48:36.828Z,75
2018-05-02T11:49:36.507Z,70
2018-05-02T11:50:36.240Z,70
2018-05-02T11:51:36.294Z,65
2018-05-02T11:52:36.855Z,65
2018-05-02T11:53:36.873Z,70
2018-05-02T11:54:36.913Z,75
2018-05-02T11:55:36.636Z,75
2018-05-02T11:56:37.223Z,75
2018-05-02T11:57:36.965Z,70
2018-05-02T11:58:36.706Z,70
2018-05-02T11:59:37.008Z,70
2018-05-02T12:00:37.310Z,75
2018-05-02T12:01:37.050Z,75
2018-05-02T12:02:37.194Z,70
2018-05-02T12:03:37.043Z,70
2018-05-02T12:04:37.118Z,75
2018-05-02T12:05:37.139Z,75
2018-05-02T12:06:37.448Z,80
2018-05-02T12:07:37.185Z,80
2018-05-02T12:08:37.505Z,75
2018-05-02T12:09:37.511Z,75
2018-05-02T12:10:37.906Z,80
2018-05-02T12:11:37.271Z,75
2018-05-02T12:12:37.014Z,75
2018-05-02T12:13:37.595Z,70
2018-05-02T12:14:37.342Z,75
2018-05-02T12:15:37.363Z,75
2018-05-02T12:16:37.376Z,70
2018-05-02T12:17:37.688Z,60
2018-05-02T12:18:37.719Z,60
2018-05-02T12:19:37.451Z,60
2018-05-02T12:20:37.183Z,60
2018-05-02T12:21:37.499Z,65
2018-05-02T12:22:37.268Z,70
2018-05-02T12:23:37.259Z,70
2018-05-02T12:24:37.854Z,70
2018-05-02T12:25:37.301Z,65
2018-05-02T12:26:37.333Z,65
2018-05-02T12:27:37.638Z,65
2018-05-02T12:28:37.648Z,70
2018-05-02T12:29:37.685Z,70
2018-05-02T12:30:37.986Z,65
2018-05-02T12:31:38.008Z,70
2018-05-02T12:32:37.758Z,70
2018-05-02T12:33:38.065Z,70
2018-05-02T12:34:38.092Z,70
2018-05-02T12:35:38.443Z,65
2018-05-02T12:36:38.593Z,65
2018-05-02T12:37:37.573Z,65
2018-05-02T12:38:38.167Z,65
2018-05-02T12:39:37.624Z,65
2018-05-02T12:40:38.216Z,65
2018-05-02T12:41:38.240Z,65
2018-05-02T12:42:37.981Z,65
2018-05-02T12:43:38.317Z,70
2018-05-02T12:44:37.742Z,70
2018-05-02T12:45:38.054Z,75
2018-05-02T12:46:38.131Z,70
2018-05-02T12:47:38.380Z,70
2018-05-02T12:48:38.123Z,70
2018-05-02T12:49:38.426Z,65
2018-05-02T12:50:38.236Z,65
2018-05-02T12:51:37.911Z,65
2018-05-02T12:52:37.940Z,70
2018-05-02T12:53:38.237Z,70
2018-05-02T12:54:38.270Z,70
2018-05-02T12:55:38.278Z,70
2018-05-02T12:56:38.018Z,70
2018-05-02T12:57:38.616Z,75
2018-05-02T12:58:38.644Z,80
2018-05-02T12:59:38.087Z,85
2018-05-02T13:00:38.685Z,90
2018-05-02T13:01:38.418Z,80
2018-05-02T13:02:38.955Z,80
2018-05-02T13:03:38.192Z,85
2018-05-02T13:04:38.495Z,95
2018-05-02T13:05:38.238Z,85
2018-05-02T13:06:38.619Z,70
2018-05-02T13:07:38.852Z,80
2018-05-02T13:08:38.589Z,80
2018-05-02T13:09:38.897Z,90
2018-05-02T13:10:38.926Z,90
2018-05-02T13:11:38.378Z,80
2018-05-02T13:12:38.684Z,80
2018-05-02T13:13:38.705Z,80
2018-05-02T13:14:39.014Z,80
2018-05-02T13:15:38.930Z,80
2018-05-02T13:16:38.835Z,75
2018-05-02T13:17:38.808Z,70
2018-05-02T13:18:38.835Z,70
2018-05-02T13:19:39.151Z,65
2018-05-02T13:20:38.875Z,65
2018-05-02T13:21:38.908Z,65
2018-05-02T13:22:38.930Z,60
2018-05-02T13:23:39.025Z,55
2018-05-02T13:24:38.697Z,55
2018-05-02T13:25:38.714Z,65
2018-05-02T13:26:39.314Z,70
2018-05-02T13:27:39.335Z,70
2018-05-02T13:28:39.080Z,55
2018-05-02T13:29:39.102Z,50
2018-05-02T13:30:39.135Z,55
2018-05-02T13:31:38.865Z,65
2018-05-02T13:32:39.456Z,65
2018-05-02T13:33:39.585Z,65
2018-05-02T13:34:38.936Z,65
2018-05-02T13:35:39.292Z,60
2018-05-02T13:36:39.271Z,70
2018-05-02T13:37:39.578Z,70
2018-05-02T13:38:38.754Z,60
2018-05-02T13:39:39.342Z,60
2018-05-02T13:40:39.381Z,60
2018-05-02T13:41:39.677Z,45
2018-05-02T13:42:39.702Z,45
2018-05-02T13:43:39.802Z,50
2018-05-02T13:44:39.188Z,55
2018-05-02T13:45:39.773Z,50
2018-05-02T13:46:39.806Z,50
2018-05-02T13:47:39.548Z,50
2018-05-02T13:48:39.851Z,55
2018-05-02T13:49:39.883Z,55
2018-05-02T13:50:39.899Z,50
2018-05-02T13:51:39.640Z,45
2018-05-02T13:52:39.661Z,45
2018-05-02T13:53:39.696Z,45
2018-05-02T13:54:40.000Z,40
2018-05-02T13:55:40.067Z,40
2018-05-02T13:56:39.476Z,40
2018-05-02T13:57:39.793Z,35
2018-05-02T13:58:39.830Z,35
2018-05-02T13:59:39.840Z,35
2018-05-02T14:00:39.864Z,40
2018-05-02T14:01:40.226Z,35
2018-05-02T14:02:39.923Z,40
2018-05-02T14:03:39.650Z,40
2018-05-02T14:04:39.975Z,35
2018-05-02T14:05:40.279Z,35
2018-05-02T14:06:39.688Z,35
2018-05-02T14:07:39.989Z,35
2018-05-02T14:08:40.634Z,30
2018-05-02T14:09:40.311Z,30
2018-05-02T14:10:40.079Z,30
2018-05-02T14:11:40.099Z,30
2018-05-02T14:12:40.409Z,30
2018-05-02T14:13:40.472Z,25
2018-05-02T14:14:39.904Z,25
2018-05-02T14:15:40.193Z,25
2018-05-02T14:16:40.205Z,20
2018-05-02T14:17:40.501Z,25
2018-05-02T14:18:40.271Z,25
2018-05-02T14:19:40.299Z,25
2018-05-02T14:20:39.808Z,30
2018-05-02T14:21:40.392Z,30
2018-05-02T14:22:40.382Z,30
2018-05-02T14:23:40.646Z,35
2018-05-02T14:24:40.482Z,35
2018-05-02T14:25:40.740Z,35
2018-05-02T14:26:40.249Z,40